createdAt,value
2022-08-09T00:02:17.696Z,3.00
2022-08-09T00:06:18.224Z,3.15
2022-08-09T00:10:05.719Z,2.80
2022-08-09T00:13:48.010Z,2.75
2022-08-09T00:18:05.151Z,2.70
2022-08-09T00:21:31.935Z,2.63
2022-08-09T00:25:15.084Z,3.13
2022-08-09T00:29:12.407Z,2.97
2022-08-09T00:33:07.657Z,2.67
2022-08-09T00:36:49.791Z,3.60
2022-08-09T00:40:31.831Z,3.17
2022-08-09T00:44:25.427Z,3.28
2022-08-09T00:48:08.519Z,3.25
2022-08-09T00:51:57.482Z,3.30
2022-08-09T00:56:03.686Z,2.65
2022-08-09T00:59:47.241Z,3.00
2022-08-09T01:03:50.385Z,2.92
2022-08-09T01:08:01.068Z,3.03
2022-08-09T01:11:53.447Z,3.20
2022-08-09T01:15:52.379Z,3.35
2022-08-09T01:20:03.375Z,2.70
2022-08-09T01:24:05.266Z,3.15
2022-08-09T01:27:53.251Z,3.33
2022-08-09T01:32:37.747Z,3.05
2022-08-09T01:36:08.906Z,3.70
2022-08-09T01:39:53.350Z,3.40
2022-08-09T01:43:47.925Z,3.15
2022-08-09T01:47:44.910Z,3.42
2022-08-09T01:51:33.215Z,3.35
2022-08-09T01:59:01.569Z,3.17
2022-08-09T02:02:46.642Z,3.17
2022-08-09T02:06:58.451Z,2.90
2022-08-09T02:10:51.009Z,3.45
2022-08-09T02:14:34.301Z,3.53
2022-08-09T02:18:21.945Z,3.40
2022-08-09T02:22:11.629Z,3.90
2022-08-09T02:25:58.596Z,3.95
2022-08-09T02:29:48.540Z,3.05
2022-08-09T02:34:07.448Z,3.33
2022-08-09T02:37:45.446Z,3.15
2022-08-09T02:41:48.307Z,3.53
2022-08-09T02:45:34.200Z,3.90
2022-08-09T02:49:19.387Z,3.30
2022-08-09T02:53:26.432Z,3.72
2022-08-09T02:57:14.047Z,3.25
2022-08-09T03:01:08.213Z,4.03
2022-08-09T03:04:54.405Z,3.35
2022-08-09T03:08:39.372Z,3.13
2022-08-09T03:12:24.462Z,3.95
2022-08-09T03:16:07.765Z,3.50
2022-08-09T03:19:58.126Z,3.83
2022-08-09T03:24:03.755Z,3.50
2022-08-09T03:27:52.839Z,3.40
2022-08-09T03:31:42.478Z,3.83
2022-08-09T03:36:13.936Z,3.63
2022-08-09T03:39:38.071Z,3.50
2022-08-09T03:43:20.231Z,3.70
2022-08-09T03:47:02.577Z,3.30
2022-08-09T03:50:48.506Z,3.70
2022-08-09T03:54:38.582Z,4.20
2022-08-09T03:58:21.446Z,3.67
2022-08-09T04:02:04.280Z,4.13
2022-08-09T04:05:50.126Z,3.65
2022-08-09T04:09:44.496Z,3.70
2022-08-09T04:14:37.545Z,3.78
2022-08-09T04:17:33.723Z,3.63
2022-08-09T04:21:15.684Z,4.05
2022-08-09T04:28:42.290Z,3.72
2022-08-09T04:32:33.638Z,4.18
2022-08-09T04:36:19.368Z,4.00
2022-08-09T04:40:02.096Z,4.30
2022-08-09T04:43:49.737Z,4.33
2022-08-09T04:48:00.984Z,4.05
2022-08-09T04:51:46.128Z,4.05
2022-08-09T04:55:28.496Z,4.30
2022-08-09T04:59:22.638Z,3.93
2022-08-09T05:03:13.368Z,3.90
2022-08-09T05:07:07.862Z,4.22
2022-08-09T05:11:02.739Z,4.40
2022-08-09T05:14:44.923Z,4.13
2022-08-09T05:18:42.537Z,4.47
2022-08-09T05:22:35.749Z,4.65
2022-08-09T05:26:36.222Z,5.60
2022-08-09T05:30:20.471Z,5.72
2022-08-09T05:34:02.479Z,4.88
2022-08-09T05:37:46.395Z,5.40
2022-08-09T05:41:32.014Z,5.05
2022-08-09T05:45:15.014Z,5.25
2022-08-09T05:48:58.902Z,4.47
2022-08-09T05:52:42.957Z,5.20
2022-08-09T05:56:26.019Z,4.65
2022-08-09T06:00:08.775Z,4.78
2022-08-09T06:03:58.004Z,4.38
2022-08-09T06:07:40.811Z,5.13
2022-08-09T06:11:24.418Z,4.40
2022-08-09T06:15:23.215Z,4.13
2022-08-09T06:19:08.511Z,4.60
2022-08-09T06:22:50.528Z,4.75
2022-08-09T06:26:34.447Z,5.03
2022-08-09T06:30:17.190Z,4.40
2022-08-09T06:33:59.940Z,4.45
2022-08-09T06:37:49.814Z,4.37
2022-08-09T06:42:08.080Z,4.78
2022-08-09T06:46:07.628Z,4.60
2022-08-09T06:50:11.983Z,3.95
2022-08-09T06:53:41.346Z,4.25
2022-08-09T06:57:25.685Z,3.88
2022-08-09T07:01:27.628Z,4.15
2022-08-09T07:06:02.419Z,3.83
2022-08-09T07:09:53.529Z,4.35
2022-08-09T07:14:04.283Z,4.65
2022-08-09T07:17:39.467Z,4.22
2022-08-09T07:21:22.065Z,4.90
2022-08-09T07:25:09.585Z,5.00
2022-08-09T07:29:01.303Z,4.97
2022-08-09T07:32:51.657Z,5.03
2022-08-09T07:36:33.834Z,5.50
2022-08-09T07:40:20.182Z,5.20
2022-08-09T07:44:07.039Z,5.07
2022-08-09T07:48:00.692Z,4.90
2022-08-09T07:52:05.878Z,4.68
2022-08-09T07:56:03.673Z,3.45
2022-08-09T08:00:02.870Z,4.22
2022-08-09T08:03:46.050Z,4.47
2022-08-09T08:08:43.082Z,4.40
2022-08-09T08:12:09.662Z,4.28
2022-08-09T08:15:37.676Z,3.35
2022-08-09T08:19:21.367Z,4.07
2022-08-09T08:23:16.046Z,4.03
2022-08-09T08:26:59.234Z,4.15
2022-08-09T08:30:41.888Z,3.90
2022-08-09T08:34:25.342Z,3.75
2022-08-09T08:38:11.345Z,2.95
2022-08-09T08:41:54.464Z,3.35
2022-08-09T08:45:53.590Z,3.22
2022-08-09T08:49:49.273Z,3.40
2022-08-09T08:53:36.792Z,3.20
2022-08-09T08:57:21.028Z,2.92
2022-08-09T09:01:09.142Z,2.83
2022-08-09T09:05:06.007Z,2.70
2022-08-09T09:08:52.932Z,3.45
2022-08-09T09:12:44.414Z,3.20
2022-08-09T09:16:35.163Z,2.60
2022-08-09T09:20:18.008Z,2.05
2022-08-09T09:24:10.438Z,2.03
2022-08-09T09:28:08.190Z,2.40
2022-08-09T09:32:04.125Z,2.25
2022-08-09T09:36:03.640Z,2.20
2022-08-09T09:39:59.566Z,2.00
2022-08-09T09:44:10.741Z,2.20
2022-08-09T09:47:56.526Z,2.30
2022-08-09T09:51:41.495Z,1.92
2022-08-09T09:55:31.970Z,2.00
2022-08-09T09:59:20.811Z,1.70
2022-08-09T10:03:09.211Z,1.92
2022-08-09T10:06:54.424Z,1.77
2022-08-09T10:10:36.860Z,1.73
2022-08-09T10:14:33.834Z,1.63
2022-08-09T10:18:16.510Z,1.70
2022-08-09T10:22:00.313Z,1.60
2022-08-09T10:26:07.375Z,2.00
2022-08-09T10:30:43.910Z,1.83
2022-08-09T10:34:10.673Z,1.40
2022-08-09T10:37:52.288Z,1.85
2022-08-09T10:41:35.983Z,1.70
2022-08-09T10:45:18.828Z,1.23
2022-08-09T10:49:07.874Z,1.40
2022-08-09T10:53:00.002Z,1.38
2022-08-09T10:56:43.472Z,1.48
2022-08-09T11:00:31.559Z,1.40
2022-08-09T11:04:20.005Z,1.40
2022-08-09T11:08:47.417Z,1.02
2022-08-09T11:12:30.460Z,1.30
2022-08-09T11:16:36.271Z,1.33
2022-08-09T11:20:37.640Z,1.38
2022-08-09T11:24:21.555Z,1.30
2022-08-09T11:28:33.689Z,1.60
2022-08-09T11:32:45.938Z,1.80
2022-08-09T11:36:42.967Z,1.30
2022-08-09T11:40:33.006Z,1.40
2022-08-09T11:44:17.850Z,1.50
2022-08-09T11:48:11.101Z,1.50
2022-08-09T11:53:02.282Z,1.48
2022-08-09T11:56:19.571Z,1.52
2022-08-09T12:00:15.854Z,1.33
2022-08-09T12:04:01.793Z,1.50
2022-08-09T12:07:43.952Z,1.48
2022-08-09T12:11:27.842Z,1.83
2022-08-09T12:15:50.503Z,1.80
2022-08-09T12:19:32.300Z,1.60
2022-08-09T12:23:14.422Z,1.60
2022-08-09T12:29:11.082Z,1.60
2022-08-09T12:31:30.930Z,1.38
2022-08-09T12:35:37.821Z,1.60
2022-08-09T12:39:22.888Z,1.50
2022-08-09T12:43:05.971Z,1.50
2022-08-09T12:46:50.088Z,1.52
2022-08-09T12:50:34.509Z,1.90
2022-08-09T12:54:17.905Z,1.75
2022-08-09T12:58:10.882Z,1.88
2022-08-09T13:02:09.413Z,1.58
2022-08-09T13:06:15.935Z,1.63
2022-08-09T13:10:03.691Z,1.80
2022-08-09T13:14:41.144Z,1.67
2022-08-09T13:18:04.900Z,1.23
2022-08-09T13:22:37.549Z,1.88
2022-08-09T13:25:54.734Z,1.80
2022-08-09T13:30:02.975Z,1.73
2022-08-09T13:33:53.154Z,1.60
2022-08-09T13:37:51.763Z,1.48
2022-08-09T13:41:59.352Z,1.23
2022-08-09T13:46:44.346Z,1.80
2022-08-09T13:49:56.091Z,1.52
2022-08-09T13:53:43.669Z,1.50
2022-08-09T13:57:36.656Z,1.40
2022-08-09T14:02:01.493Z,1.60
2022-08-09T14:05:58.266Z,1.20
2022-08-09T14:09:26.347Z,1.40
2022-08-09T14:13:12.141Z,1.90
2022-08-09T14:17:12.639Z,1.77
2022-08-09T14:20:56.501Z,1.50
2022-08-09T14:24:46.925Z,1.40
2022-08-09T14:28:36.085Z,1.75
2022-08-09T14:32:19.659Z,2.00
2022-08-09T14:36:19.759Z,1.55
2022-08-09T14:40:03.663Z,1.75
2022-08-09T14:47:45.349Z,1.42
2022-08-09T14:51:31.384Z,1.60
2022-08-09T14:55:24.775Z,1.73
2022-08-09T14:59:08.578Z,1.50
2022-08-09T15:02:58.232Z,1.88
2022-08-09T15:06:42.082Z,1.60
2022-08-09T15:10:32.809Z,1.83
2022-08-09T15:14:14.899Z,1.58
2022-08-09T15:18:01.151Z,1.60
2022-08-09T15:21:55.794Z,1.90
2022-08-09T15:25:42.557Z,1.60
2022-08-09T15:30:58.380Z,1.60
2022-08-09T15:34:11.672Z,1.80
2022-08-09T15:37:37.067Z,1.35
2022-08-09T15:41:22.323Z,1.77
2022-08-09T15:45:06.163Z,1.77
2022-08-09T15:49:20.425Z,1.60
2022-08-09T15:52:55.147Z,1.63
2022-08-09T15:56:48.391Z,1.83
2022-08-09T16:00:31.810Z,1.70
2022-08-09T16:07:56.762Z,1.50
2022-08-09T16:16:10.663Z,1.50
2022-08-09T16:19:24.685Z,1.60
2022-08-09T16:23:11.244Z,1.92
2022-08-09T16:26:53.281Z,1.50
2022-08-09T16:30:38.658Z,1.48
2022-08-09T16:34:27.201Z,1.80
2022-08-09T16:38:11.112Z,1.70
2022-08-09T16:42:04.092Z,1.52
2022-08-09T16:45:46.822Z,1.70
2022-08-09T16:50:32.196Z,1.50
2022-08-09T16:53:34.290Z,2.03
2022-08-09T16:57:16.528Z,1.40
2022-08-09T17:00:58.510Z,1.85
2022-08-09T17:04:41.092Z,1.80
2022-08-09T17:12:26.237Z,1.75
2022-08-09T17:16:08.343Z,1.60
2022-08-09T17:20:28.319Z,1.60
2022-08-09T17:24:27.489Z,1.55
2022-08-09T17:27:55.950Z,1.63
2022-08-09T17:31:38.796Z,1.40
2022-08-09T17:35:22.886Z,1.33
2022-08-09T17:39:06.221Z,1.58
2022-08-09T17:42:55.615Z,1.60
2022-08-09T17:46:41.906Z,1.60
2022-08-09T17:50:37.909Z,2.00
2022-08-09T17:54:19.877Z,1.65
2022-08-09T17:58:17.237Z,1.60
2022-08-09T18:02:11.018Z,1.48
2022-08-09T18:05:58.334Z,1.58
2022-08-09T18:09:43.676Z,1.85
2022-08-09T18:14:00.645Z,1.65
2022-08-09T18:18:03.617Z,1.85
2022-08-09T18:21:47.054Z,1.77
2022-08-09T18:25:50.135Z,1.50
2022-08-09T18:30:40.269Z,1.83
2022-08-09T18:33:36.414Z,1.88
2022-08-09T18:37:48.611Z,1.87
2022-08-09T18:41:21.806Z,1.90
2022-08-09T18:45:10.081Z,2.22
2022-08-09T18:49:03.932Z,2.70
2022-08-09T18:52:46.726Z,2.28
2022-08-09T18:56:32.982Z,2.00
2022-08-09T19:00:20.331Z,1.80
2022-08-09T19:04:08.500Z,2.28
2022-08-09T19:08:04.787Z,2.10
2022-08-09T19:11:52.831Z,1.80
2022-08-09T19:15:34.812Z,2.07
2022-08-09T19:19:23.766Z,2.60
2022-08-09T19:23:16.487Z,2.13
2022-08-09T19:26:58.847Z,2.28
2022-08-09T19:30:44.505Z,1.93
2022-08-09T19:34:26.917Z,2.00
2022-08-09T19:38:08.961Z,1.83
2022-08-09T19:41:53.382Z,2.10
2022-08-09T19:45:40.281Z,2.20
2022-08-09T19:50:07.977Z,2.20
2022-08-09T19:53:26.513Z,2.70
2022-08-09T19:57:09.336Z,2.15
2022-08-09T20:00:51.390Z,2.25
2022-08-09T20:04:37.712Z,2.03
2022-08-09T20:08:25.073Z,2.20
2022-08-09T20:12:30.002Z,1.85
2022-08-09T20:16:36.491Z,2.22
2022-08-09T20:20:21.047Z,2.10
2022-08-09T20:24:04.675Z,2.17
2022-08-09T20:27:46.586Z,2.28
2022-08-09T20:31:29.066Z,2.20
2022-08-09T20:35:12.155Z,2.33
2022-08-09T20:39:28.318Z,2.35
2022-08-09T20:43:17.977Z,2.08
2022-08-09T20:47:01.266Z,2.40
2022-08-09T20:50:46.362Z,2.90
2022-08-09T20:54:30.899Z,2.55
2022-08-09T20:58:20.603Z,1.92
2022-08-09T21:02:02.840Z,2.33
2022-08-09T21:05:55.220Z,2.30
2022-08-09T21:09:56.914Z,2.70
2022-08-09T21:13:57.770Z,2.40
2022-08-09T21:18:21.908Z,2.50
2022-08-09T21:21:57.231Z,2.80
2022-08-09T21:25:56.115Z,2.47
2022-08-09T21:29:49.119Z,2.67
2022-08-09T21:33:36.259Z,2.45
2022-08-09T21:37:18.682Z,2.55
2022-08-09T21:41:00.711Z,2.78
2022-08-09T21:44:43.571Z,2.40
2022-08-09T21:48:25.666Z,2.72
2022-08-09T21:52:16.578Z,2.70
2022-08-09T21:55:59.304Z,2.78
2022-08-09T21:59:45.478Z,2.53
2022-08-09T22:03:27.650Z,2.40
2022-08-09T22:07:09.716Z,2.90
2022-08-09T22:11:49.566Z,2.90
2022-08-09T22:18:52.148Z,2.42
2022-08-09T22:22:36.603Z,2.80
2022-08-09T22:26:34.407Z,2.80
2022-08-09T22:30:26.045Z,2.58
2022-08-09T22:34:14.476Z,2.78
2022-08-09T22:38:03.328Z,2.65
2022-08-09T22:41:49.827Z,3.10
2022-08-09T22:48:11.357Z,2.97
2022-08-09T22:49:36.638Z,2.80
2022-08-09T22:53:22.345Z,3.60
2022-08-09T22:57:05.159Z,2.95
2022-08-09T23:00:47.115Z,2.83
2022-08-09T23:04:32.811Z,3.07
2022-08-09T23:08:33.500Z,2.88
2022-08-09T23:12:16.199Z,2.92
2022-08-09T23:16:03.159Z,2.97
2022-08-09T23:20:06.859Z,3.47
2022-08-09T23:24:01.666Z,2.83
2022-08-09T23:27:57.207Z,3.03
2022-08-09T23:31:54.319Z,3.30
2022-08-09T23:36:04.848Z,2.80
2022-08-09T23:39:38.500Z,3.10
2022-08-09T23:43:20.713Z,3.20
2022-08-09T23:47:02.690Z,3.03
2022-08-09T23:50:44.628Z,3.25
2022-08-09T23:54:27.582Z,3.40
2022-08-09T23:58:25.557Z,3.30
